createdAt,value
2022-11-05T00:02:12.822Z,8.04
2022-11-05T00:04:39.458Z,7.84
2022-11-05T00:07:30.546Z,8.08
2022-11-05T00:10:01.877Z,8.18
2022-11-05T00:12:28.493Z,8.19
2022-11-05T00:14:55.099Z,8.15
2022-11-05T00:17:21.726Z,8.16
2022-11-05T00:19:48.411Z,7.97
2022-11-05T00:22:15.010Z,7.70
2022-11-05T00:24:41.621Z,7.78
2022-11-05T00:27:08.302Z,7.81
2022-11-05T00:29:34.917Z,7.62
2022-11-05T00:32:01.725Z,7.58
2022-11-05T00:34:28.344Z,7.97
2022-11-05T00:36:55.536Z,8.11
2022-11-05T00:39:22.134Z,8.09
2022-11-05T00:41:48.749Z,8.60
2022-11-05T00:44:15.355Z,8.16
2022-11-05T00:46:44.097Z,8.01
2022-11-05T00:49:10.715Z,8.10
2022-11-05T00:51:37.330Z,8.36
2022-11-05T00:54:03.978Z,8.06
2022-11-05T00:56:30.598Z,8.17
2022-11-05T00:58:57.210Z,8.73
2022-11-05T01:01:23.905Z,8.58
2022-11-05T01:03:51.989Z,8.58
2022-11-05T01:06:18.931Z,8.64
2022-11-05T01:08:45.687Z,8.65
2022-11-05T01:11:17.310Z,8.74
2022-11-05T01:13:43.924Z,8.66
2022-11-05T01:16:10.541Z,9.08
2022-11-05T01:18:37.875Z,8.77
2022-11-05T01:21:12.422Z,8.84
2022-11-05T01:23:39.044Z,8.73
2022-11-05T01:26:05.722Z,8.91
2022-11-05T01:28:32.518Z,8.85
2022-11-05T01:30:59.174Z,8.81
2022-11-05T01:33:25.790Z,8.84
2022-11-05T01:35:52.406Z,8.89
2022-11-05T01:38:19.030Z,8.83
2022-11-05T01:40:45.652Z,8.79
2022-11-05T01:43:20.309Z,8.73
2022-11-05T01:45:49.365Z,8.83
2022-11-05T01:48:18.221Z,8.81
2022-11-05T01:50:59.305Z,8.76
2022-11-05T01:53:27.447Z,8.82
2022-11-05T01:56:18.425Z,8.83
2022-11-05T01:58:46.328Z,9.08
2022-11-05T02:01:12.933Z,9.11
2022-11-05T02:03:39.547Z,8.75
2022-11-05T02:06:06.200Z,8.83
2022-11-05T02:08:51.583Z,8.36
2022-11-05T02:11:18.740Z,8.38
2022-11-05T02:13:45.740Z,8.40
2022-11-05T02:16:22.010Z,8.29
2022-11-05T02:19:21.030Z,8.42
2022-11-05T02:22:05.550Z,8.67
2022-11-05T02:25:00.946Z,8.76
2022-11-05T02:27:55.072Z,8.87
2022-11-05T02:30:47.676Z,8.79
2022-11-05T02:34:28.441Z,8.72
2022-11-05T02:37:20.299Z,8.66
2022-11-05T02:40:11.089Z,8.69
2022-11-05T02:42:43.962Z,8.97
2022-11-05T02:45:32.468Z,8.96
2022-11-05T02:48:03.455Z,8.91
2022-11-05T02:50:48.675Z,8.69
2022-11-05T02:53:31.582Z,8.76
2022-11-05T02:56:04.026Z,8.67
2022-11-05T02:58:30.660Z,9.00
2022-11-05T03:01:00.239Z,8.86
2022-11-05T03:03:37.442Z,9.08
2022-11-05T03:06:22.758Z,9.25
2022-11-05T03:08:52.145Z,9.28
2022-11-05T03:11:19.988Z,8.80
2022-11-05T03:13:46.481Z,8.81
2022-11-05T03:16:18.259Z,8.68
2022-11-05T03:19:15.580Z,8.62
2022-11-05T03:22:01.024Z,8.69
2022-11-05T03:24:32.434Z,8.67
2022-11-05T03:27:07.357Z,8.77
2022-11-05T03:29:36.589Z,8.81
2022-11-05T03:32:03.293Z,8.51
2022-11-05T03:34:32.020Z,8.23
2022-11-05T03:36:58.627Z,8.43
2022-11-05T03:39:45.979Z,8.22
2022-11-05T03:42:15.886Z,8.52
2022-11-05T03:44:45.221Z,8.27
2022-11-05T03:47:14.974Z,8.23
2022-11-05T03:49:47.840Z,8.29
2022-11-05T03:52:18.956Z,8.36
2022-11-05T03:54:45.884Z,8.28
2022-11-05T03:57:14.788Z,8.45
2022-11-05T03:59:45.649Z,8.44
2022-11-05T04:02:13.094Z,8.12
2022-11-05T04:04:39.818Z,8.18
2022-11-05T04:07:06.417Z,8.09
2022-11-05T04:09:33.033Z,8.23
2022-11-05T04:11:59.647Z,8.19
2022-11-05T04:14:26.262Z,8.32
2022-11-05T04:16:52.897Z,8.23
2022-11-05T04:19:23.748Z,8.01
2022-11-05T04:21:52.754Z,8.19
2022-11-05T04:24:19.370Z,8.28
2022-11-05T04:26:45.976Z,8.15
2022-11-05T04:29:12.627Z,8.16
2022-11-05T04:31:39.231Z,8.11
2022-11-05T04:34:05.920Z,8.15
2022-11-05T04:36:32.547Z,7.99
2022-11-05T04:38:59.162Z,7.97
2022-11-05T04:41:26.008Z,8.16
2022-11-05T04:43:52.613Z,7.95
2022-11-05T04:46:19.236Z,8.05
2022-11-05T04:48:45.857Z,8.00
2022-11-05T04:51:12.476Z,8.06
2022-11-05T04:53:39.087Z,8.01
2022-11-05T04:56:12.550Z,8.18
2022-11-05T04:58:40.485Z,8.31
2022-11-05T05:01:08.989Z,8.08
2022-11-05T05:03:35.650Z,8.16
2022-11-05T05:06:04.023Z,8.43
2022-11-05T05:08:30.938Z,8.27
2022-11-05T05:11:02.114Z,8.21
2022-11-05T05:13:28.728Z,8.11
2022-11-05T05:15:55.347Z,8.28
2022-11-05T05:18:21.959Z,8.14
2022-11-05T05:20:48.634Z,8.16
2022-11-05T05:23:15.251Z,8.27
2022-11-05T05:25:41.863Z,8.33
2022-11-05T05:28:08.465Z,8.28
2022-11-05T05:30:35.098Z,8.31
2022-11-05T05:33:02.731Z,8.20
2022-11-05T05:35:29.476Z,8.14
2022-11-05T05:37:56.155Z,8.37
2022-11-05T05:40:23.526Z,8.23
2022-11-05T05:42:54.753Z,8.16
2022-11-05T05:45:21.359Z,8.26
2022-11-05T05:47:47.981Z,8.50
2022-11-05T05:50:14.598Z,8.61
2022-11-05T05:52:41.216Z,8.63
2022-11-05T05:55:08.014Z,8.48
2022-11-05T05:57:34.631Z,8.30
2022-11-05T06:00:01.295Z,8.31
2022-11-05T06:02:30.441Z,8.11
2022-11-05T06:04:57.205Z,8.12
2022-11-05T06:07:23.809Z,8.28
2022-11-05T06:09:50.462Z,8.47
2022-11-05T06:12:17.078Z,8.22
2022-11-05T06:14:43.693Z,8.24
2022-11-05T06:17:10.301Z,8.25
2022-11-05T06:19:36.915Z,8.13
2022-11-05T06:22:03.539Z,8.13
2022-11-05T06:24:30.164Z,8.24
2022-11-05T06:26:56.806Z,8.20
2022-11-05T06:29:23.429Z,8.36
2022-11-05T06:31:50.042Z,8.28
2022-11-05T06:34:16.648Z,8.31
2022-11-05T06:36:43.256Z,8.28
2022-11-05T06:39:10.781Z,8.06
2022-11-05T06:41:56.952Z,8.29
2022-11-05T06:44:24.000Z,8.26
2022-11-05T06:46:50.614Z,8.56
2022-11-05T06:49:17.231Z,8.39
2022-11-05T06:51:43.842Z,8.43
2022-11-05T06:54:10.454Z,8.46
2022-11-05T06:56:37.052Z,8.59
2022-11-05T06:59:03.660Z,8.64
2022-11-05T07:01:30.399Z,8.81
2022-11-05T07:03:57.071Z,8.98
2022-11-05T07:06:23.695Z,8.94
2022-11-05T07:08:50.326Z,8.86
2022-11-05T07:11:18.163Z,8.87
2022-11-05T07:13:44.773Z,9.26
2022-11-05T07:16:11.647Z,9.26
2022-11-05T18:17:08.929Z,7.65
2022-11-05T18:19:35.551Z,7.41
2022-11-05T18:22:02.379Z,7.29
2022-11-05T18:24:28.991Z,7.15
2022-11-05T18:26:55.606Z,7.27
2022-11-05T18:29:22.226Z,7.76
2022-11-05T18:31:48.835Z,7.48
2022-11-05T18:34:15.453Z,7.30
2022-11-05T18:36:43.295Z,7.35
2022-11-05T18:39:09.916Z,7.16
2022-11-05T18:41:36.527Z,6.70
2022-11-05T18:44:03.237Z,6.95
2022-11-05T18:46:56.564Z,6.66
2022-11-05T18:49:17.144Z,6.96
2022-11-05T18:51:43.754Z,6.58
2022-11-05T18:54:10.396Z,6.61
2022-11-05T18:56:37.016Z,6.61
2022-11-05T18:59:34.740Z,6.59
2022-11-05T19:01:50.334Z,6.84
2022-11-05T19:04:17.018Z,6.83
2022-11-05T19:06:43.630Z,6.60
2022-11-05T19:09:10.364Z,6.79
2022-11-05T19:11:36.989Z,6.62
2022-11-05T19:14:03.608Z,6.71
2022-11-05T19:16:30.352Z,6.73
2022-11-05T19:19:00.993Z,6.55
2022-11-05T19:21:27.754Z,6.60
2022-11-05T19:23:55.778Z,6.64
2022-11-05T19:26:28.372Z,6.53
2022-11-05T19:28:57.475Z,6.43
2022-11-05T19:31:24.182Z,6.53
2022-11-05T19:33:51.025Z,6.38
2022-11-05T19:36:18.001Z,6.61
2022-11-05T19:38:44.635Z,6.65
2022-11-05T19:41:12.417Z,6.56
2022-11-05T19:43:39.032Z,6.34
2022-11-05T19:46:10.185Z,6.34
2022-11-05T19:48:37.021Z,6.15
2022-11-05T19:51:12.876Z,5.98
2022-11-05T19:53:39.585Z,6.05
2022-11-05T19:56:14.585Z,6.07
2022-11-05T19:58:41.233Z,5.99
2022-11-05T20:01:08.079Z,5.99
2022-11-05T20:03:34.752Z,5.76
2022-11-05T20:06:02.589Z,5.86
2022-11-05T20:08:29.476Z,5.77
2022-11-05T20:10:56.246Z,5.61
2022-11-05T20:13:23.179Z,5.85
2022-11-05T20:15:49.780Z,5.90
2022-11-05T20:18:16.417Z,5.78
2022-11-05T20:20:43.821Z,5.99
2022-11-05T20:23:10.445Z,5.90
2022-11-05T20:25:37.153Z,5.70
2022-11-05T20:28:03.843Z,5.86
2022-11-05T20:30:30.486Z,5.89
2022-11-05T20:32:57.497Z,5.92
2022-11-05T20:35:24.261Z,5.71
2022-11-05T20:37:53.971Z,5.68
2022-11-05T20:40:21.038Z,5.72
2022-11-05T20:42:53.336Z,5.77
2022-11-05T20:45:19.958Z,5.57
2022-11-05T20:47:46.627Z,5.50
2022-11-05T20:50:13.267Z,5.56
2022-11-05T20:52:39.893Z,5.58
2022-11-05T20:55:06.773Z,5.70
2022-11-05T20:57:33.386Z,5.69
2022-11-05T20:59:59.993Z,5.77
2022-11-05T21:02:26.735Z,5.78
2022-11-05T21:04:53.428Z,5.94
2022-11-05T21:07:20.048Z,5.97
2022-11-05T21:09:46.681Z,5.78
2022-11-05T21:12:13.322Z,6.27
2022-11-05T21:14:41.291Z,6.11
2022-11-05T21:17:08.770Z,6.05
2022-11-05T21:19:35.736Z,5.86
2022-11-05T21:22:02.754Z,5.48
2022-11-05T21:24:29.416Z,5.65
2022-11-05T21:26:56.035Z,5.74
2022-11-05T21:29:22.657Z,5.82
2022-11-05T21:31:49.285Z,5.64
2022-11-05T21:34:16.330Z,5.50
2022-11-05T21:36:42.973Z,5.43
2022-11-05T21:39:13.442Z,5.65
2022-11-05T21:41:40.522Z,5.76
2022-11-05T21:44:07.132Z,5.72
2022-11-05T21:46:33.744Z,5.80
2022-11-05T21:49:00.356Z,5.69
2022-11-05T21:51:26.974Z,5.44
2022-11-05T21:53:53.585Z,5.86
2022-11-05T21:56:21.023Z,5.84
2022-11-05T21:58:47.638Z,5.81
2022-11-05T22:01:14.321Z,5.61
2022-11-05T22:03:40.962Z,5.77
2022-11-05T22:06:07.577Z,5.43
2022-11-05T22:08:34.195Z,5.33
2022-11-05T22:11:03.643Z,5.21
2022-11-05T22:13:30.260Z,5.29
2022-11-05T22:15:56.925Z,5.20
2022-11-05T22:18:23.605Z,5.07
2022-11-05T22:20:50.206Z,5.06
2022-11-05T22:23:16.804Z,5.22
2022-11-05T22:25:43.407Z,5.42
2022-11-05T22:28:10.279Z,5.58
2022-11-05T22:30:37.101Z,5.64
2022-11-05T22:33:03.705Z,5.48
2022-11-05T22:35:30.317Z,5.24
2022-11-05T22:37:56.926Z,4.80
2022-11-05T22:40:24.236Z,5.14
2022-11-05T22:42:50.951Z,5.39
2022-11-05T22:45:17.585Z,5.58
2022-11-05T22:47:44.199Z,5.72
2022-11-05T22:50:10.813Z,5.74
2022-11-05T22:52:37.436Z,5.83
2022-11-05T22:55:04.231Z,5.68
2022-11-05T22:57:30.839Z,5.68
2022-11-05T22:59:57.449Z,5.60
2022-11-05T23:02:24.343Z,5.57
2022-11-05T23:04:51.686Z,5.62
2022-11-05T23:07:21.963Z,5.30
2022-11-05T23:09:51.279Z,4.98
2022-11-05T23:12:43.820Z,4.90
2022-11-05T23:15:10.502Z,4.88
2022-11-05T23:17:37.119Z,4.91
2022-11-05T23:20:05.010Z,4.75
2022-11-05T23:22:31.648Z,4.57
2022-11-05T23:24:58.266Z,4.57
2022-11-05T23:27:24.881Z,4.64
2022-11-05T23:29:51.506Z,4.80
2022-11-05T23:32:18.108Z,4.72
2022-11-05T23:34:44.722Z,4.88
2022-11-05T23:37:11.342Z,4.81
2022-11-05T23:39:42.458Z,4.99
2022-11-05T23:42:09.618Z,4.98
2022-11-05T23:44:36.241Z,4.86
2022-11-05T23:47:02.859Z,5.09
2022-11-05T23:49:29.470Z,5.08
2022-11-05T23:51:56.087Z,5.23
2022-11-05T23:54:22.707Z,5.27
2022-11-05T23:56:49.317Z,5.34
2022-11-05T23:59:15.923Z,5.29
